sensor_id;sensor_type;location;lat;lon;timestamp;pressure;altitude;pressure_sealevel;temperature;humidity
43814;BME280;29669;55.706;37.656;2022-08-25T00:01:15;101044.19;;;21.77;46.28
43814;BME280;29669;55.706;37.656;2022-08-25T00:04:38;101039.13;;;21.76;46.53
43814;BME280;29669;55.706;37.656;2022-08-25T00:08:00;101045.63;;;21.73;46.83
43814;BME280;29669;55.706;37.656;2022-08-25T00:11:23;101039.94;;;21.70;47.20
43814;BME280;29669;55.706;37.656;2022-08-25T00:14:44;101041.75;;;21.69;47.60
43814;BME280;29669;55.706;37.656;2022-08-25T00:18:05;101043.59;;;21.62;47.61
43814;BME280;29669;55.706;37.656;2022-08-25T00:21:26;101040.75;;;21.57;47.94
43814;BME280;29669;55.706;37.656;2022-08-25T00:24:48;101037.88;;;21.52;48.28
43814;BME280;29669;55.706;37.656;2022-08-25T00:28:09;101042.97;;;21.47;48.46
43814;BME280;29669;55.706;37.656;2022-08-25T00:31:30;101045.00;;;21.45;48.72
43814;BME280;29669;55.706;37.656;2022-08-25T00:34:51;101040.75;;;21.44;48.97
43814;BME280;29669;55.706;37.656;2022-08-25T00:38:13;101043.41;;;21.44;48.83
43814;BME280;29669;55.706;37.656;2022-08-25T00:41:34;101041.13;;;21.41;49.11
43814;BME280;29669;55.706;37.656;2022-08-25T00:44:56;101034.63;;;21.37;49.28
43814;BME280;29669;55.706;37.656;2022-08-25T00:48:17;101040.94;;;21.36;49.46
43814;BME280;29669;55.706;37.656;2022-08-25T00:51:44;101038.91;;;21.31;49.51
43814;BME280;29669;55.706;37.656;2022-08-25T00:55:19;101040.13;;;21.29;49.73
43814;BME280;29669;55.706;37.656;2022-08-25T00:58:41;101034.63;;;21.24;49.98
43814;BME280;29669;55.706;37.656;2022-08-25T01:02:03;101039.69;;;21.25;50.00
43814;BME280;29669;55.706;37.656;2022-08-25T01:05:26;101041.75;;;21.23;50.34
43814;BME280;29669;55.706;37.656;2022-08-25T01:08:48;101043.56;;;21.23;50.38
43814;BME280;29669;55.706;37.656;2022-08-25T01:12:10;101033.81;;;21.23;50.56
43814;BME280;29669;55.706;37.656;2022-08-25T01:15:32;101042.94;;;21.21;50.56
43814;BME280;29669;55.706;37.656;2022-08-25T01:18:56;101035.41;;;21.18;50.88
43814;BME280;29669;55.706;37.656;2022-08-25T01:22:21;101026.28;;;21.14;50.98
43814;BME280;29669;55.706;37.656;2022-08-25T01:25:52;101035.00;;;21.08;51.21
43814;BME280;29669;55.706;37.656;2022-08-25T01:29:16;101027.69;;;21.03;51.43
43814;BME280;29669;55.706;37.656;2022-08-25T01:32:39;101028.25;;;20.99;51.46
43814;BME280;29669;55.706;37.656;2022-08-25T01:36:00;101028.66;;;20.96;51.75
43814;BME280;29669;55.706;37.656;2022-08-25T01:39:21;101028.84;;;20.94;51.94
43814;BME280;29669;55.706;37.656;2022-08-25T01:43:10;101030.25;;;20.90;52.06
43814;BME280;29669;55.706;37.656;2022-08-25T01:46:32;101027.81;;;20.89;52.34
43814;BME280;29669;55.706;37.656;2022-08-25T01:49:53;101035.13;;;20.87;52.57
43814;BME280;29669;55.706;37.656;2022-08-25T01:53:27;101031.66;;;20.86;52.81
43814;BME280;29669;55.706;37.656;2022-08-25T01:56:48;101028.19;;;20.86;53.17
43814;BME280;29669;55.706;37.656;2022-08-25T02:00:09;101028.03;;;20.87;53.48
43814;BME280;29669;55.706;37.656;2022-08-25T02:03:31;101028.19;;;20.86;53.55
43814;BME280;29669;55.706;37.656;2022-08-25T02:06:55;101034.72;;;20.90;53.70
43814;BME280;29669;55.706;37.656;2022-08-25T02:10:16;101036.34;;;20.91;53.77
43814;BME280;29669;55.706;37.656;2022-08-25T02:13:38;101040.41;;;20.93;53.99
43814;BME280;29669;55.706;37.656;2022-08-25T02:16:59;101037.59;;;20.95;54.05
43814;BME280;29669;55.706;37.656;2022-08-25T02:20:20;101037.38;;;20.96;53.97
43814;BME280;29669;55.706;37.656;2022-08-25T02:23:41;101032.72;;;20.98;54.08
43814;BME280;29669;55.706;37.656;2022-08-25T02:27:02;101046.97;;;21.04;54.17
43814;BME280;29669;55.706;37.656;2022-08-25T02:30:23;101042.94;;;21.08;54.27
43814;BME280;29669;55.706;37.656;2022-08-25T02:33:44;101040.91;;;21.10;54.53
43814;BME280;29669;55.706;37.656;2022-08-25T02:37:05;101037.44;;;21.09;54.70
43814;BME280;29669;55.706;37.656;2022-08-25T02:40:27;101038.28;;;21.10;54.65
43814;BME280;29669;55.706;37.656;2022-08-25T02:43:48;101044.34;;;21.10;54.62
43814;BME280;29669;55.706;37.656;2022-08-25T02:47:10;101037.84;;;21.13;54.67
43814;BME280;29669;55.706;37.656;2022-08-25T02:50:33;101040.50;;;21.13;54.61
43814;BME280;29669;55.706;37.656;2022-08-25T02:53:47;101031.56;;;21.14;54.67
43814;BME280;29669;55.706;37.656;2022-08-25T02:57:10;101032.78;;;21.18;54.50
43814;BME280;29669;55.706;37.656;2022-08-25T03:00:31;101035.66;;;21.23;54.38
43814;BME280;29669;55.706;37.656;2022-08-25T03:03:52;101037.28;;;21.30;53.81
43814;BME280;29669;55.706;37.656;2022-08-25T03:07:13;101037.28;;;21.37;53.41
43814;BME280;29669;55.706;37.656;2022-08-25T03:10:39;101029.56;;;21.42;52.90
43814;BME280;29669;55.706;37.656;2022-08-25T03:14:00;101033.03;;;21.49;52.36
43814;BME280;29669;55.706;37.656;2022-08-25T03:17:21;101033.81;;;21.56;52.07
43814;BME280;29669;55.706;37.656;2022-08-25T03:20:42;101037.09;;;21.65;51.76
43814;BME280;29669;55.706;37.656;2022-08-25T03:24:03;101037.69;;;21.73;51.29
43814;BME280;29669;55.706;37.656;2022-08-25T03:27:25;101026.72;;;21.83;50.98
43814;BME280;29669;55.706;37.656;2022-08-25T03:30:46;101026.31;;;21.92;50.76
43814;BME280;29669;55.706;37.656;2022-08-25T03:34:07;101028.75;;;22.00;50.35
43814;BME280;29669;55.706;37.656;2022-08-25T03:37:29;101028.53;;;22.08;49.98
43814;BME280;29669;55.706;37.656;2022-08-25T03:40:50;101023.81;;;22.17;49.75
43814;BME280;29669;55.706;37.656;2022-08-25T03:44:13;101019.13;;;22.25;49.41
43814;BME280;29669;55.706;37.656;2022-08-25T03:47:34;101022.34;;;22.34;49.10
43814;BME280;29669;55.706;37.656;2022-08-25T03:50:55;101018.44;;;22.43;48.94
43814;BME280;29669;55.706;37.656;2022-08-25T03:54:19;101028.56;;;22.53;48.69
43814;BME280;29669;55.706;37.656;2022-08-25T03:57:41;101016.75;;;22.62;48.79
43814;BME280;29669;55.706;37.656;2022-08-25T04:01:02;101021.59;;;22.71;48.66
43814;BME280;29669;55.706;37.656;2022-08-25T04:04:24;101019.53;;;22.80;48.65
43814;BME280;29669;55.706;37.656;2022-08-25T04:07:45;101013.19;;;22.87;48.32
43814;BME280;29669;55.706;37.656;2022-08-25T04:11:12;101011.06;;;22.96;48.11
43814;BME280;29669;55.706;37.656;2022-08-25T04:14:33;101011.44;;;23.06;47.98
43814;BME280;29669;55.706;37.656;2022-08-25T04:17:56;101007.47;;;23.15;47.98
43814;BME280;29669;55.706;37.656;2022-08-25T04:21:17;101008.06;;;23.23;47.71
43814;BME280;29669;55.706;37.656;2022-08-25T04:24:39;100996.19;;;23.32;47.61
43814;BME280;29669;55.706;37.656;2022-08-25T04:28:00;100998.94;;;23.44;47.38
43814;BME280;29669;55.706;37.656;2022-08-25T04:31:22;100994.16;;;23.53;46.89
43814;BME280;29669;55.706;37.656;2022-08-25T04:34:43;100989.41;;;23.61;46.74
43814;BME280;29669;55.706;37.656;2022-08-25T04:38:04;100992.41;;;23.71;46.57
43814;BME280;29669;55.706;37.656;2022-08-25T04:41:25;100994.75;;;23.79;46.22
43814;BME280;29669;55.706;37.656;2022-08-25T04:44:46;100992.63;;;23.88;45.89
43814;BME280;29669;55.706;37.656;2022-08-25T04:48:07;100995.38;;;23.99;45.58
43814;BME280;29669;55.706;37.656;2022-08-25T04:51:33;100994.06;;;24.08;45.18
43814;BME280;29669;55.706;37.656;2022-08-25T04:54:55;100986.41;;;24.18;44.73
43814;BME280;29669;55.706;37.656;2022-08-25T04:58:16;100991.56;;;24.32;44.52
43814;BME280;29669;55.706;37.656;2022-08-25T05:01:38;100982.84;;;24.43;44.26
43814;BME280;29669;55.706;37.656;2022-08-25T05:05:02;100984.97;;;24.52;44.09
43814;BME280;29669;55.706;37.656;2022-08-25T05:08:23;100981.53;;;24.63;43.54
43814;BME280;29669;55.706;37.656;2022-08-25T05:11:44;100985.09;;;24.75;43.51
43814;BME280;29669;55.706;37.656;2022-08-25T05:15:05;100986.75;;;24.88;43.18
43814;BME280;29669;55.706;37.656;2022-08-25T05:18:40;100985.72;;;25.00;42.90
43814;BME280;29669;55.706;37.656;2022-08-25T05:22:01;100975.59;;;25.09;42.46
43814;BME280;29669;55.706;37.656;2022-08-25T05:25:22;100975.38;;;25.22;41.95
43814;BME280;29669;55.706;37.656;2022-08-25T05:28:44;100978.84;;;25.34;41.89
43814;BME280;29669;55.706;37.656;2022-08-25T05:32:05;100977.06;;;25.46;41.46
43814;BME280;29669;55.706;37.656;2022-08-25T05:35:26;100972.56;;;25.58;41.37
43814;BME280;29669;55.706;37.656;2022-08-25T05:38:47;100968.50;;;25.67;41.05
43814;BME280;29669;55.706;37.656;2022-08-25T05:42:08;100967.09;;;25.76;40.98
43814;BME280;29669;55.706;37.656;2022-08-25T05:45:29;100974.50;;;25.86;40.62
43814;BME280;29669;55.706;37.656;2022-08-25T05:48:44;100978.19;;;25.96;40.83
43814;BME280;29669;55.706;37.656;2022-08-25T05:52:06;100961.44;;;26.08;40.32
43814;BME280;29669;55.706;37.656;2022-08-25T05:55:27;100958.72;;;26.19;40.42
43814;BME280;29669;55.706;37.656;2022-08-25T05:58:48;100963.44;;;26.29;40.06
43814;BME280;29669;55.706;37.656;2022-08-25T06:02:15;100957.84;;;26.42;40.14
43814;BME280;29669;55.706;37.656;2022-08-25T06:06:04;100958.00;;;26.52;39.66
43814;BME280;29669;55.706;37.656;2022-08-25T06:09:25;100955.78;;;26.60;39.66
43814;BME280;29669;55.706;37.656;2022-08-25T06:12:47;100960.75;;;26.68;39.40
43814;BME280;29669;55.706;37.656;2022-08-25T06:16:08;100960.16;;;26.78;39.23
43814;BME280;29669;55.706;37.656;2022-08-25T06:19:29;100961.13;;;26.88;39.08
43814;BME280;29669;55.706;37.656;2022-08-25T06:22:50;100954.91;;;26.99;39.18
43814;BME280;29669;55.706;37.656;2022-08-25T06:26:12;100958.00;;;27.08;38.99
43814;BME280;29669;55.706;37.656;2022-08-25T06:29:33;100966.94;;;27.19;38.55
43814;BME280;29669;55.706;37.656;2022-08-25T06:32:59;100956.44;;;27.29;38.26
43814;BME280;29669;55.706;37.656;2022-08-25T06:36:20;100951.28;;;27.39;37.99
43814;BME280;29669;55.706;37.656;2022-08-25T06:39:41;100962.44;;;27.52;37.75
43814;BME280;29669;55.706;37.656;2022-08-25T06:43:03;100960.47;;;27.64;37.63
43814;BME280;29669;55.706;37.656;2022-08-25T06:46:25;100954.47;;;27.74;37.33
43814;BME280;29669;55.706;37.656;2022-08-25T06:49:47;100948.78;;;27.87;37.06
43814;BME280;29669;55.706;37.656;2022-08-25T06:53:08;100947.06;;;27.98;36.67
43814;BME280;29669;55.706;37.656;2022-08-25T06:56:29;100949.03;;;28.07;36.75
43814;BME280;29669;55.706;37.656;2022-08-25T06:59:50;100954.25;;;28.19;36.55
43814;BME280;29669;55.706;37.656;2022-08-25T07:03:11;100946.63;;;28.27;36.28
43814;BME280;29669;55.706;37.656;2022-08-25T07:06:33;100940.25;;;28.33;36.38
43814;BME280;29669;55.706;37.656;2022-08-25T07:09:54;100940.88;;;28.40;36.17
43814;BME280;29669;55.706;37.656;2022-08-25T07:13:15;100947.38;;;28.49;35.93
43814;BME280;29669;55.706;37.656;2022-08-25T07:16:37;100942.69;;;28.56;35.54
43814;BME280;29669;55.706;37.656;2022-08-25T07:19:58;100942.50;;;28.63;35.26
43814;BME280;29669;55.706;37.656;2022-08-25T07:23:20;100936.13;;;28.69;35.20
43814;BME280;29669;55.706;37.656;2022-08-25T07:26:42;100935.66;;;28.77;35.24
43814;BME280;29669;55.706;37.656;2022-08-25T07:30:05;100936.00;;;28.86;35.23
43814;BME280;29669;55.706;37.656;2022-08-25T07:33:26;100937.16;;;28.95;34.90
43814;BME280;29669;55.706;37.656;2022-08-25T07:36:47;100920.66;;;29.03;34.77
43814;BME280;29669;55.706;37.656;2022-08-25T07:40:16;100929.63;;;29.18;34.24
43814;BME280;29669;55.706;37.656;2022-08-25T07:43:38;100931.31;;;29.29;33.88
43814;BME280;29669;55.706;37.656;2022-08-25T07:46:52;100934.53;;;29.36;33.70
43814;BME280;29669;55.706;37.656;2022-08-25T07:50:13;100933.53;;;29.42;33.52
43814;BME280;29669;55.706;37.656;2022-08-25T07:53:34;100932.22;;;29.50;32.92
43814;BME280;29669;55.706;37.656;2022-08-25T07:56:55;100923.72;;;29.58;32.93
43814;BME280;29669;55.706;37.656;2022-08-25T08:00:16;100920.78;;;29.64;32.48
43814;BME280;29669;55.706;37.656;2022-08-25T08:03:43;100916.03;;;29.72;32.25
43814;BME280;29669;55.706;37.656;2022-08-25T08:07:09;100913.13;;;29.78;31.80
43814;BME280;29669;55.706;37.656;2022-08-25T08:10:49;100908.34;;;29.85;31.61
43814;BME280;29669;55.706;37.656;2022-08-25T08:14:11;100902.75;;;29.97;31.27
43814;BME280;29669;55.706;37.656;2022-08-25T08:17:32;100904.66;;;30.06;31.08
43814;BME280;29669;55.706;37.656;2022-08-25T08:20:54;100903.88;;;30.11;30.84
43814;BME280;29669;55.706;37.656;2022-08-25T08:24:15;100894.00;;;30.16;30.89
43814;BME280;29669;55.706;37.656;2022-08-25T08:27:51;100887.03;;;30.25;30.40
43814;BME280;29669;55.706;37.656;2022-08-25T08:31:13;100892.69;;;30.34;30.53
43814;BME280;29669;55.706;37.656;2022-08-25T08:34:34;100884.66;;;30.34;30.08
43814;BME280;29669;55.706;37.656;2022-08-25T08:37:58;100885.75;;;30.38;29.88
43814;BME280;29669;55.706;37.656;2022-08-25T08:41:52;100883.88;;;30.43;29.77
43814;BME280;29669;55.706;37.656;2022-08-25T08:45:35;100875.56;;;30.55;29.66
43814;BME280;29669;55.706;37.656;2022-08-25T08:52:45;100876.13;;;30.77;29.00
43814;BME280;29669;55.706;37.656;2022-08-25T08:56:10;100874.00;;;30.84;28.59
43814;BME280;29669;55.706;37.656;2022-08-25T08:59:46;100870.53;;;30.94;28.41
43814;BME280;29669;55.706;37.656;2022-08-25T09:03:15;100869.69;;;31.08;28.09
43814;BME280;29669;55.706;37.656;2022-08-25T09:06:47;100863.22;;;31.24;27.64
43814;BME280;29669;55.706;37.656;2022-08-25T09:10:09;100863.75;;;31.26;27.35
43814;BME280;29669;55.706;37.656;2022-08-25T09:25:22;100850.97;;;31.77;26.42
43814;BME280;29669;55.706;37.656;2022-08-25T09:32:43;100845.69;;;32.11;25.82
43814;BME280;29669;55.706;37.656;2022-08-25T09:36:37;100839.22;;;32.17;25.58
43814;BME280;29669;55.706;37.656;2022-08-25T09:40:16;100834.91;;;32.21;25.66
43814;BME280;29669;55.706;37.656;2022-08-25T09:43:45;100839.91;;;32.32;25.21
43814;BME280;29669;55.706;37.656;2022-08-25T09:47:23;100833.63;;;32.42;25.05
43814;BME280;29669;55.706;37.656;2022-08-25T09:50:48;100834.19;;;32.44;24.55
43814;BME280;29669;55.706;37.656;2022-08-25T09:57:54;100821.47;;;32.83;24.27
43814;BME280;29669;55.706;37.656;2022-08-25T10:01:19;100817.28;;;33.01;24.16
43814;BME280;29669;55.706;37.656;2022-08-25T10:04:41;100825.44;;;33.19;23.97
43814;BME280;29669;55.706;37.656;2022-08-25T10:08:11;100820.63;;;33.16;23.83
43814;BME280;29669;55.706;37.656;2022-08-25T10:11:39;100814.09;;;33.22;23.67
43814;BME280;29669;55.706;37.656;2022-08-25T10:18:40;100805.16;;;33.27;23.71
43814;BME280;29669;55.706;37.656;2022-08-25T10:22:10;100801.59;;;33.32;23.48
43814;BME280;29669;55.706;37.656;2022-08-25T10:25:31;100809.03;;;33.40;23.39
43814;BME280;29669;55.706;37.656;2022-08-25T10:39:44;100789.31;;;34.05;22.70
43814;BME280;29669;55.706;37.656;2022-08-25T10:43:23;100790.25;;;34.14;22.41
43814;BME280;29669;55.706;37.656;2022-08-25T10:46:57;100788.31;;;34.01;22.46
43814;BME280;29669;55.706;37.656;2022-08-25T10:50:54;100785.06;;;33.62;22.81
43814;BME280;29669;55.706;37.656;2022-08-25T10:58:37;100784.78;;;33.21;23.02
43814;BME280;29669;55.706;37.656;2022-08-25T11:02:07;100784.03;;;33.15;22.99
43814;BME280;29669;55.706;37.656;2022-08-25T11:05:54;100768.41;;;33.17;22.95
43814;BME280;29669;55.706;37.656;2022-08-25T11:09:23;100768.03;;;33.24;22.84
43814;BME280;29669;55.706;37.656;2022-08-25T11:12:52;100772.16;;;33.16;22.79
43814;BME280;29669;55.706;37.656;2022-08-25T11:16:24;100765.66;;;33.22;22.80
43814;BME280;29669;55.706;37.656;2022-08-25T11:19:51;100759.69;;;33.49;22.59
43814;BME280;29669;55.706;37.656;2022-08-25T11:26:50;100747.66;;;34.16;21.89
43814;BME280;29669;55.706;37.656;2022-08-25T11:30:16;100743.69;;;34.27;21.89
43814;BME280;29669;55.706;37.656;2022-08-25T11:33:37;100739.41;;;34.40;21.85
43814;BME280;29669;55.706;37.656;2022-08-25T11:37:28;100728.78;;;34.62;21.71
43814;BME280;29669;55.706;37.656;2022-08-25T11:55:55;100717.72;;;34.17;21.36
43814;BME280;29669;55.706;37.656;2022-08-25T12:03:45;100723.81;;;33.72;21.63
43814;BME280;29669;55.706;37.656;2022-08-25T12:10:52;100712.94;;;33.77;21.76
43814;BME280;29669;55.706;37.656;2022-08-25T12:17:44;100706.06;;;34.36;21.37
43814;BME280;29669;55.706;37.656;2022-08-25T12:28:13;100702.22;;;34.55;21.17
43814;BME280;29669;55.706;37.656;2022-08-25T12:31:55;100691.53;;;34.50;21.29
43814;BME280;29669;55.706;37.656;2022-08-25T12:35:22;100689.19;;;34.44;21.14
43814;BME280;29669;55.706;37.656;2022-08-25T12:38:48;100678.44;;;34.57;20.87
43814;BME280;29669;55.706;37.656;2022-08-25T12:42:21;100675.84;;;34.79;20.75
43814;BME280;29669;55.706;37.656;2022-08-25T12:46:31;100680.38;;;35.47;20.08
43814;BME280;29669;55.706;37.656;2022-08-25T12:49:42;100667.41;;;37.53;18.40
43814;BME280;29669;55.706;37.656;2022-08-25T12:53:23;100669.59;;;39.28;16.86
43814;BME280;29669;55.706;37.656;2022-08-25T12:56:58;100670.13;;;40.40;16.05
43814;BME280;29669;55.706;37.656;2022-08-25T13:00:24;100664.09;;;40.83;15.25
43814;BME280;29669;55.706;37.656;2022-08-25T13:04:24;100658.81;;;41.26;15.50
43814;BME280;29669;55.706;37.656;2022-08-25T13:11:40;100656.31;;;41.76;15.10
43814;BME280;29669;55.706;37.656;2022-08-25T13:15:03;100649.69;;;42.05;14.70
43814;BME280;29669;55.706;37.656;2022-08-25T13:18:27;100641.31;;;42.95;14.05
43814;BME280;29669;55.706;37.656;2022-08-25T13:21:48;100656.25;;;43.36;13.88
43814;BME280;29669;55.706;37.656;2022-08-25T13:25:20;100648.31;;;43.31;13.47
43814;BME280;29669;55.706;37.656;2022-08-25T13:28:50;100637.00;;;43.13;13.60
43814;BME280;29669;55.706;37.656;2022-08-25T13:32:24;100632.31;;;43.14;13.66
43814;BME280;29669;55.706;37.656;2022-08-25T13:35:49;100636.38;;;43.39;13.28
43814;BME280;29669;55.706;37.656;2022-08-25T13:39:28;100636.63;;;43.95;13.12
43814;BME280;29669;55.706;37.656;2022-08-25T13:43:10;100622.06;;;44.36;12.59
43814;BME280;29669;55.706;37.656;2022-08-25T13:46:33;100630.53;;;44.76;12.15
43814;BME280;29669;55.706;37.656;2022-08-25T13:53:36;100623.88;;;44.51;12.69
43814;BME280;29669;55.706;37.656;2022-08-25T13:57:13;100614.06;;;44.50;12.33
43814;BME280;29669;55.706;37.656;2022-08-25T14:00:43;100610.88;;;44.22;12.13
43814;BME280;29669;55.706;37.656;2022-08-25T14:07:58;100604.28;;;44.49;11.89
43814;BME280;29669;55.706;37.656;2022-08-25T14:11:56;100605.75;;;44.17;12.30
43814;BME280;29669;55.706;37.656;2022-08-25T14:18:52;100599.66;;;44.27;11.83
43814;BME280;29669;55.706;37.656;2022-08-25T14:22:14;100596.16;;;44.30;11.86
43814;BME280;29669;55.706;37.656;2022-08-25T14:25:35;100595.44;;;44.59;11.53
43814;BME280;29669;55.706;37.656;2022-08-25T14:28:56;100599.03;;;44.63;11.82
43814;BME280;29669;55.706;37.656;2022-08-25T14:32:17;100594.97;;;44.53;11.45
43814;BME280;29669;55.706;37.656;2022-08-25T14:35:41;100586.34;;;44.03;11.85
43814;BME280;29669;55.706;37.656;2022-08-25T14:39:03;100591.31;;;44.20;12.00
43814;BME280;29669;55.706;37.656;2022-08-25T14:42:24;100583.69;;;44.32;12.08
43814;BME280;29669;55.706;37.656;2022-08-25T14:45:46;100584.25;;;44.19;12.08
43814;BME280;29669;55.706;37.656;2022-08-25T14:49:11;100583.81;;;43.91;12.07
43814;BME280;29669;55.706;37.656;2022-08-25T14:52:33;100577.50;;;43.45;12.22
43814;BME280;29669;55.706;37.656;2022-08-25T14:55:58;100583.84;;;43.49;12.04
43814;BME280;29669;55.706;37.656;2022-08-25T14:59:20;100578.72;;;43.66;12.08
43814;BME280;29669;55.706;37.656;2022-08-25T15:02:42;100568.72;;;43.77;12.18
43814;BME280;29669;55.706;37.656;2022-08-25T15:06:04;100569.59;;;43.81;11.81
43814;BME280;29669;55.706;37.656;2022-08-25T15:09:25;100570.00;;;43.61;12.14
43814;BME280;29669;55.706;37.656;2022-08-25T15:12:46;100569.63;;;43.40;12.38
43814;BME280;29669;55.706;37.656;2022-08-25T15:16:08;100567.84;;;43.28;12.44
43814;BME280;29669;55.706;37.656;2022-08-25T15:19:40;100569.88;;;43.16;12.42
43814;BME280;29669;55.706;37.656;2022-08-25T15:23:02;100563.91;;;42.53;12.58
43814;BME280;29669;55.706;37.656;2022-08-25T15:26:23;100560.25;;;41.98;13.42
43814;BME280;29669;55.706;37.656;2022-08-25T15:29:44;100557.63;;;41.28;13.80
43814;BME280;29669;55.706;37.656;2022-08-25T15:33:10;100554.03;;;40.72;13.91
43814;BME280;29669;55.706;37.656;2022-08-25T15:36:35;100553.19;;;40.56;14.32
43814;BME280;29669;55.706;37.656;2022-08-25T15:39:57;100548.66;;;40.48;14.22
43814;BME280;29669;55.706;37.656;2022-08-25T15:43:18;100555.81;;;40.16;14.31
43814;BME280;29669;55.706;37.656;2022-08-25T15:46:40;100559.38;;;39.27;15.06
43814;BME280;29669;55.706;37.656;2022-08-25T15:50:09;100551.53;;;37.59;16.22
43814;BME280;29669;55.706;37.656;2022-08-25T15:53:33;100559.81;;;36.04;17.60
43814;BME280;29669;55.706;37.656;2022-08-25T15:56:55;100563.31;;;34.93;18.37
43814;BME280;29669;55.706;37.656;2022-08-25T16:00:30;100559.88;;;34.11;19.41
43814;BME280;29669;55.706;37.656;2022-08-25T16:04:02;100554.25;;;33.49;19.89
43814;BME280;29669;55.706;37.656;2022-08-25T16:07:23;100568.72;;;33.02;20.37
43814;BME280;29669;55.706;37.656;2022-08-25T16:10:44;100563.63;;;32.58;21.02
43814;BME280;29669;55.706;37.656;2022-08-25T16:14:05;100563.22;;;32.22;20.96
43814;BME280;29669;55.706;37.656;2022-08-25T16:17:27;100565.19;;;31.88;21.43
43814;BME280;29669;55.706;37.656;2022-08-25T16:20:51;100567.63;;;31.56;22.08
43814;BME280;29669;55.706;37.656;2022-08-25T16:24:18;100568.91;;;31.25;22.11
43814;BME280;29669;55.706;37.656;2022-08-25T16:27:44;100571.78;;;30.95;22.71
43814;BME280;29669;55.706;37.656;2022-08-25T16:31:08;100573.53;;;30.66;23.07
43814;BME280;29669;55.706;37.656;2022-08-25T16:34:30;100568.53;;;30.39;23.52
43814;BME280;29669;55.706;37.656;2022-08-25T16:37:53;100571.53;;;30.17;23.67
43814;BME280;29669;55.706;37.656;2022-08-25T16:41:21;100567.28;;;29.96;24.18
43814;BME280;29669;55.706;37.656;2022-08-25T16:44:47;100568.91;;;29.77;24.63
43814;BME280;29669;55.706;37.656;2022-08-25T16:48:11;100571.84;;;29.55;24.56
43814;BME280;29669;55.706;37.656;2022-08-25T16:51:33;100575.56;;;29.34;25.11
43814;BME280;29669;55.706;37.656;2022-08-25T16:55:03;100577.16;;;29.15;25.75
43814;BME280;29669;55.706;37.656;2022-08-25T16:58:28;100574.69;;;28.99;25.73
43814;BME280;29669;55.706;37.656;2022-08-25T17:01:52;100576.50;;;28.83;26.45
43814;BME280;29669;55.706;37.656;2022-08-25T17:05:13;100580.22;;;28.67;26.71
43814;BME280;29669;55.706;37.656;2022-08-25T17:08:34;100588.13;;;28.52;26.74
43814;BME280;29669;55.706;37.656;2022-08-25T17:11:56;100590.22;;;28.40;27.22
43814;BME280;29669;55.706;37.656;2022-08-25T17:15:17;100586.63;;;28.24;27.46
43814;BME280;29669;55.706;37.656;2022-08-25T17:18:38;100585.25;;;28.12;27.72
43814;BME280;29669;55.706;37.656;2022-08-25T17:22:00;100589.19;;;27.99;27.94
43814;BME280;29669;55.706;37.656;2022-08-25T17:25:21;100586.41;;;27.89;28.19
43814;BME280;29669;55.706;37.656;2022-08-25T17:28:47;100577.00;;;27.81;28.09
43814;BME280;29669;55.706;37.656;2022-08-25T17:32:02;100584.66;;;27.73;28.37
43814;BME280;29669;55.706;37.656;2022-08-25T17:35:23;100582.72;;;27.63;28.66
43814;BME280;29669;55.706;37.656;2022-08-25T17:38:44;100583.75;;;27.57;29.07
43814;BME280;29669;55.706;37.656;2022-08-25T17:42:05;100580.47;;;27.50;29.21
43814;BME280;29669;55.706;37.656;2022-08-25T17:45:28;100578.53;;;27.41;29.36
43814;BME280;29669;55.706;37.656;2022-08-25T17:49:09;100583.00;;;27.35;29.60
43814;BME280;29669;55.706;37.656;2022-08-25T17:52:30;100584.78;;;27.30;29.88
43814;BME280;29669;55.706;37.656;2022-08-25T17:56:01;100582.91;;;27.25;29.67
43814;BME280;29669;55.706;37.656;2022-08-25T17:59:24;100591.38;;;27.22;30.21
43814;BME280;29669;55.706;37.656;2022-08-25T18:02:46;100582.53;;;27.17;30.32
43814;BME280;29669;55.706;37.656;2022-08-25T18:06:07;100583.28;;;27.12;30.27
43814;BME280;29669;55.706;37.656;2022-08-25T18:09:28;100582.19;;;27.08;30.59
43814;BME280;29669;55.706;37.656;2022-08-25T18:12:49;100583.22;;;27.07;30.79
43814;BME280;29669;55.706;37.656;2022-08-25T18:16:11;100580.00;;;27.05;30.64
43814;BME280;29669;55.706;37.656;2022-08-25T18:19:32;100579.44;;;27.03;30.68
43814;BME280;29669;55.706;37.656;2022-08-25T18:22:54;100581.25;;;26.97;31.08
43814;BME280;29669;55.706;37.656;2022-08-25T18:26:16;100583.06;;;26.92;31.14
43814;BME280;29669;55.706;37.656;2022-08-25T18:29:37;100585.69;;;26.87;31.45
43814;BME280;29669;55.706;37.656;2022-08-25T18:32:58;100581.91;;;26.83;31.43
43814;BME280;29669;55.706;37.656;2022-08-25T18:36:19;100583.19;;;26.80;31.56
43814;BME280;29669;55.706;37.656;2022-08-25T18:39:45;100587.19;;;26.78;31.57
43814;BME280;29669;55.706;37.656;2022-08-25T18:43:24;100584.13;;;26.69;32.00
43814;BME280;29669;55.706;37.656;2022-08-25T18:46:45;100579.47;;;26.60;32.19
43814;BME280;29669;55.706;37.656;2022-08-25T18:50:13;100574.81;;;26.50;32.19
43814;BME280;29669;55.706;37.656;2022-08-25T18:53:34;100570.16;;;26.41;32.31
43814;BME280;29669;55.706;37.656;2022-08-25T18:56:56;100575.34;;;26.31;32.74
43814;BME280;29669;55.706;37.656;2022-08-25T19:00:19;100578.44;;;26.23;32.59
43814;BME280;29669;55.706;37.656;2022-08-25T19:03:41;100576.25;;;26.20;33.06
43814;BME280;29669;55.706;37.656;2022-08-25T19:07:03;100574.03;;;26.12;33.29
43814;BME280;29669;55.706;37.656;2022-08-25T19:10:25;100576.00;;;26.04;33.44